Time;durP1;ratioP1;P1;durP2;ratioP2;P2;SDS_P1;SDS_P2;PMS_P1;PMS_P2;Temp;Humidity;BMP_temperature;BMP_pressure;BME280_temperature;BME280_humidity;BME280_pressure;Samples;Min_cycle;Max_cycle;Signal;HPM_P1;HPM_P2
2021/06/30 00:02:23;;;;;;;0.50;0.30;;;23.80;57.40;;;;;;5012473;28;20385;-64
2021/06/30 00:04:48;;;;;;;0.70;0.30;;;23.80;57.50;;;;;;5012256;28;20415;-64
2021/06/30 00:07:14;;;;;;;0.60;0.30;;;23.80;57.40;;;;;;5012168;28;20386;-64
2021/06/30 00:09:40;;;;;;;0.80;0.30;;;23.80;57.40;;;;;;5011964;28;20404;-64
2021/06/30 00:12:06;;;;;;;0.70;0.30;;;23.80;57.50;;;;;;5012260;28;20436;-65
2021/06/30 00:14:32;;;;;;;0.50;0.30;;;23.80;57.40;;;;;;5012077;28;20454;-64
2021/06/30 00:16:58;;;;;;;0.70;0.32;;;23.80;57.50;;;;;;5012309;28;20389;-64
2021/06/30 00:19:26;;;;;;;0.88;0.30;;;23.80;57.50;;;;;;5011435;28;20443;-64
2021/06/30 00:21:52;;;;;;;1.40;0.40;;;23.80;57.50;;;;;;5012074;28;20403;-64
2021/06/30 00:24:18;;;;;;;0.60;0.30;;;23.80;57.50;;;;;;5012071;28;20393;-64
2021/06/30 00:26:44;;;;;;;0.73;0.30;;;23.80;57.40;;;;;;5012076;28;20389;-64
2021/06/30 00:29:09;;;;;;;0.80;0.30;;;23.80;57.40;;;;;;5012073;28;20469;-64
2021/06/30 00:31:36;;;;;;;0.80;0.22;;;23.80;57.40;;;;;;5011357;28;20397;-64
2021/06/30 00:34:03;;;;;;;0.38;0.20;;;23.80;57.40;;;;;;5012065;28;20877;-63
2021/06/30 00:36:43;;;;;;;0.57;0.25;;;23.80;57.40;;;;;;5011956;28;20385;-64
2021/06/30 00:39:10;;;;;;;0.40;0.20;;;23.80;57.40;;;;;;5027056;28;20808;-64
2021/06/30 00:41:35;;;;;;;0.40;0.20;;;23.80;57.40;;;;;;5025981;28;21020;-64
2021/06/30 00:44:01;;;;;;;0.38;0.20;;;23.80;57.40;;;;;;5011901;28;20488;-64
2021/06/30 00:46:30;;;;;;;0.82;0.30;;;23.80;57.40;;;;;;5011818;28;20436;-64
2021/06/30 00:48:56;;;;;;;0.85;0.22;;;23.80;57.40;;;;;;5011911;28;20404;-64
2021/06/30 00:51:23;;;;;;;0.30;0.20;;;23.80;57.40;;;;;;5011374;28;20492;-64
2021/06/30 00:53:49;;;;;;;0.40;0.20;;;23.80;57.30;;;;;;5011812;28;20431;-64
2021/06/30 00:56:22;;;;;;;1.02;0.30;;;23.80;57.40;;;;;;5011832;28;20475;-64
2021/06/30 00:58:50;;;;;;;0.65;0.30;;;23.80;57.40;;;;;;5011594;28;20440;-64
2021/06/30 01:01:16;;;;;;;0.30;0.20;;;23.80;57.30;;;;;;5026925;28;20986;-64
2021/06/30 01:03:42;;;;;;;1.17;0.20;;;23.70;57.30;;;;;;5011466;28;20388;-64
2021/06/30 01:06:08;;;;;;;0.98;0.20;;;23.70;57.30;;;;;;5011681;28;20868;-64
2021/06/30 01:08:33;;;;;;;0.63;0.20;;;23.70;57.20;;;;;;5011628;28;20899;-64
2021/06/30 01:11:00;;;;;;;0.50;0.20;;;23.70;57.30;;;;;;5011542;28;20745;-64
2021/06/30 01:13:26;;;;;;;0.30;0.20;;;23.70;57.20;;;;;;5011168;28;20459;-64
2021/06/30 01:15:57;;;;;;;1.17;0.30;;;23.70;57.30;;;;;;5011633;28;20868;-63
2021/06/30 01:18:29;;;;;;;0.40;0.20;;;23.70;57.30;;;;;;5011573;28;20869;-64
2021/06/30 01:20:56;;;;;;;0.55;0.38;;;23.70;57.20;;;;;;5011337;28;20420;-64
2021/06/30 01:23:22;;;;;;;0.60;0.28;;;23.70;57.20;;;;;;5011304;28;20389;-64
2021/06/30 01:25:49;;;;;;;0.73;0.30;;;23.70;57.30;;;;;;5011515;28;20495;-64
2021/06/30 01:28:16;;;;;;;0.55;0.30;;;23.70;57.20;;;;;;5011581;28;20396;-64
2021/06/30 01:30:43;;;;;;;0.60;0.30;;;23.70;57.20;;;;;;5011384;28;20401;-64
2021/06/30 01:33:09;;;;;;;0.65;0.32;;;23.70;57.20;;;;;;5011439;28;20387;-64
2021/06/30 01:35:35;;;;;;;1.07;0.30;;;23.70;57.20;;;;;;5010892;28;20401;-64
2021/06/30 01:38:01;;;;;;;0.40;0.25;;;23.70;57.10;;;;;;5011419;28;20393;-65
2021/06/30 01:40:28;;;;;;;0.55;0.30;;;23.70;57.20;;;;;;5011163;28;20420;-63
2021/06/30 01:42:55;;;;;;;0.80;0.20;;;23.70;57.10;;;;;;5011305;28;20400;-64
2021/06/30 01:45:22;;;;;;;0.60;0.30;;;23.70;57.10;;;;;;5011070;28;20396;-63
2021/06/30 01:47:48;;;;;;;1.10;0.30;;;23.70;57.10;;;;;;5010934;28;20377;-64
2021/06/30 01:50:15;;;;;;;0.47;0.30;;;23.70;57.10;;;;;;5026568;28;20389;-64
2021/06/30 01:52:41;;;;;;;0.63;0.25;;;23.70;57.10;;;;;;5011153;28;20397;-65
2021/06/30 01:55:08;;;;;;;0.80;0.30;;;23.70;57.10;;;;;;5013726;28;20424;-64
2021/06/30 01:57:40;;;;;;;0.75;0.20;;;23.70;57.10;;;;;;5014220;28;20405;-64
2021/06/30 02:00:08;;;;;;;0.60;0.30;;;23.70;57.10;;;;;;5014567;28;20420;-64
2021/06/30 02:02:34;;;;;;;0.55;0.30;;;23.70;57.10;;;;;;5013319;28;20393;-64
2021/06/30 02:05:08;;;;;;;0.47;0.22;;;23.70;57.10;;;;;;5013396;28;20752;-64
2021/06/30 02:07:35;;;;;;;0.20;0.10;;;23.70;57.10;;;;;;5014047;28;20384;-63
2021/06/30 02:10:01;;;;;;;0.40;0.20;;;23.60;57.00;;;;;;5013212;28;20963;-64
2021/06/30 02:12:27;;;;;;;0.50;0.30;;;23.60;57.10;;;;;;5029559;28;20393;-64
2021/06/30 02:14:53;;;;;;;0.60;0.30;;;23.60;57.10;;;;;;5014333;28;20389;-64
2021/06/30 02:17:19;;;;;;;0.57;0.30;;;23.70;57.10;;;;;;5014357;28;20420;-64
2021/06/30 02:19:48;;;;;;;0.80;0.30;;;23.60;57.00;;;;;;5013379;28;20432;-64
2021/06/30 02:22:14;;;;;;;0.60;0.30;;;23.60;57.00;;;;;;5014261;28;20424;-64
2021/06/30 02:24:40;;;;;;;0.70;0.20;;;23.60;57.00;;;;;;5012945;28;20472;-64
2021/06/30 02:27:05;;;;;;;0.50;0.20;;;23.60;56.90;;;;;;5014232;28;20417;-64
2021/06/30 02:29:31;;;;;;;0.43;0.30;;;23.60;56.90;;;;;;5013655;28;20484;-64
2021/06/30 02:31:57;;;;;;;0.40;0.28;;;23.60;57.00;;;;;;5014154;28;20393;-64
2021/06/30 02:34:22;;;;;;;0.40;0.30;;;23.60;57.00;;;;;;5014068;28;20433;-64
2021/06/30 02:36:48;;;;;;;0.70;0.30;;;23.60;57.00;;;;;;5013941;28;20868;-64
2021/06/30 02:39:14;;;;;;;0.50;0.20;;;23.60;56.90;;;;;;5013922;28;20408;-64
2021/06/30 02:41:39;;;;;;;0.70;0.20;;;23.60;56.90;;;;;;5013452;28;20455;-64
2021/06/30 02:44:05;;;;;;;0.60;0.30;;;23.60;56.90;;;;;;5012659;28;20392;-64
2021/06/30 02:46:31;;;;;;;0.93;0.30;;;23.60;57.00;;;;;;5013677;28;20420;-64
2021/06/30 02:48:57;;;;;;;0.90;0.30;;;23.60;56.90;;;;;;5012460;28;20385;-65
2021/06/30 02:51:22;;;;;;;0.45;0.17;;;23.60;57.00;;;;;;5013433;28;20393;-64
2021/06/30 02:53:48;;;;;;;0.50;0.30;;;23.60;56.90;;;;;;5012385;28;20855;-64
2021/06/30 02:56:14;;;;;;;0.40;0.20;;;23.60;57.00;;;;;;5013628;28;20868;-64
2021/06/30 02:58:39;;;;;;;0.90;0.30;;;23.60;56.90;;;;;;5013409;28;20416;-64
2021/06/30 03:01:05;;;;;;;0.90;0.30;;;23.60;56.90;;;;;;5013552;28;20447;-64
2021/06/30 03:03:30;;;;;;;0.73;0.30;;;23.60;56.90;;;;;;5011688;28;20399;-64
2021/06/30 03:05:56;;;;;;;0.52;0.30;;;23.60;56.90;;;;;;5013013;28;20877;-64
2021/06/30 03:08:22;;;;;;;0.93;0.30;;;23.50;56.90;;;;;;5013463;28;20459;-63
2021/06/30 03:10:47;;;;;;;1.50;0.30;;;23.60;57.00;;;;;;5013211;28;20908;-65
2021/06/30 03:13:13;;;;;;;0.70;0.30;;;23.60;57.60;;;;;;5013244;28;20389;-64
2021/06/30 03:15:39;;;;;;;0.60;0.27;;;23.60;57.30;;;;;;5012693;28;20934;-64
2021/06/30 03:18:04;;;;;;;3.40;0.60;;;23.60;57.60;;;;;;5013204;28;20412;-65
2021/06/30 03:20:30;;;;;;;0.57;0.23;;;23.60;57.80;;;;;;5012761;28;20435;-63
2021/06/30 03:22:55;;;;;;;4.13;0.40;;;23.60;57.40;;;;;;5013050;28;20940;-64
2021/06/30 03:25:21;;;;;;;2.15;0.45;;;23.60;57.80;;;;;;5013065;28;20887;-64
2021/06/30 03:27:47;;;;;;;0.90;0.43;;;23.60;57.50;;;;;;5012031;28;20936;-64
2021/06/30 03:30:13;;;;;;;1.50;0.50;;;23.60;57.10;;;;;;5012766;28;20798;-64
2021/06/30 03:32:39;;;;;;;1.00;0.40;;;23.60;56.90;;;;;;5012694;28;20876;-64
2021/06/30 03:35:06;;;;;;;3.00;0.60;;;23.60;56.70;;;;;;5011999;28;20413;-63
2021/06/30 03:37:32;;;;;;;2.58;0.50;;;23.60;56.60;;;;;;5044495;28;20946;-64
2021/06/30 03:39:58;;;;;;;1.77;0.60;;;23.60;56.60;;;;;;5032310;28;20522;-64
2021/06/30 03:42:23;;;;;;;0.85;0.40;;;23.60;56.40;;;;;;5032432;28;20387;-64
2021/06/30 03:44:49;;;;;;;1.77;0.50;;;23.50;56.40;;;;;;5047564;28;20402;-63
2021/06/30 03:47:15;;;;;;;2.38;0.40;;;23.50;56.30;;;;;;5032347;28;20462;-64
2021/06/30 03:49:40;;;;;;;3.33;0.60;;;23.50;56.60;;;;;;5031709;28;20739;-64
2021/06/30 03:52:06;;;;;;;1.70;0.50;;;23.50;56.30;;;;;;5032333;28;20398;-64
2021/06/30 03:54:33;;;;;;;1.30;0.57;;;23.50;56.00;;;;;;5047321;28;20403;-64
2021/06/30 03:56:59;;;;;;;1.13;0.50;;;23.50;55.90;;;;;;5032365;28;20387;-64
2021/06/30 03:59:24;;;;;;;2.58;0.50;;;23.50;55.70;;;;;;5031993;28;20790;-64
2021/06/30 04:01:53;;;;;;;1.87;0.60;;;23.40;55.70;;;;;;5031514;28;20395;-64
2021/06/30 04:04:20;;;;;;;2.20;0.60;;;23.40;55.70;;;;;;5032069;28;20490;-64
2021/06/30 04:06:47;;;;;;;6.13;0.70;;;23.40;55.80;;;;;;5031950;28;20740;-64
2021/06/30 04:09:14;;;;;;;3.97;0.70;;;23.40;55.80;;;;;;5031814;28;20383;-64
2021/06/30 04:11:41;;;;;;;1.73;0.50;;;23.40;55.80;;;;;;5046958;28;20380;-64
2021/06/30 04:14:08;;;;;;;3.28;0.60;;;23.40;56.00;;;;;;5030678;28;20902;-64
2021/06/30 04:16:34;;;;;;;4.65;0.60;;;23.40;55.90;;;;;;5031400;28;20388;-63
2021/06/30 04:18:59;;;;;;;3.70;0.70;;;23.40;56.10;;;;;;5031777;28;20755;-63
2021/06/30 04:21:25;;;;;;;2.60;0.60;;;23.30;56.10;;;;;;5031626;28;20411;-64
2021/06/30 04:23:53;;;;;;;1.20;0.60;;;23.30;56.00;;;;;;5031374;28;20460;-68
2021/06/30 04:26:19;;;;;;;2.30;0.60;;;23.30;55.90;;;;;;5031774;28;20402;-63
2021/06/30 04:28:45;;;;;;;2.88;0.80;;;23.30;55.50;;;;;;5031688;28;20465;-63
2021/06/30 04:31:10;;;;;;;2.43;0.70;;;23.30;56.30;;;;;;5031681;28;20720;-65
2021/06/30 04:33:36;;;;;;;1.60;0.70;;;23.30;56.10;;;;;;5031171;28;20862;-63
2021/06/30 04:36:02;;;;;;;2.77;0.70;;;23.30;55.90;;;;;;5031730;28;20801;-63
2021/06/30 04:38:28;;;;;;;2.67;0.80;;;23.30;55.80;;;;;;5031550;28;20752;-63
2021/06/30 04:40:54;;;;;;;3.80;0.70;;;23.30;55.60;;;;;;5030371;28;20427;-63
2021/06/30 04:43:20;;;;;;;2.75;0.68;;;23.30;55.60;;;;;;5031608;28;20881;-63
2021/06/30 04:45:46;;;;;;;2.83;0.65;;;23.30;55.70;;;;;;5031029;28;20466;-64
2021/06/30 04:48:12;;;;;;;2.70;0.45;;;23.20;55.60;;;;;;5031292;28;20383;-63
2021/06/30 04:50:38;;;;;;;1.87;0.50;;;23.30;55.70;;;;;;5031344;28;20414;-64
2021/06/30 04:53:03;;;;;;;3.30;0.60;;;23.20;55.70;;;;;;5031776;28;20470;-63
2021/06/30 04:55:29;;;;;;;1.80;0.53;;;23.20;55.70;;;;;;5031113;28;20486;-65
2021/06/30 04:57:55;;;;;;;2.25;0.70;;;23.20;55.90;;;;;;5031205;28;20387;-65
2021/06/30 05:00:20;;;;;;;3.93;0.90;;;22.90;57.10;;;;;;5031288;28;20419;-65
2021/06/30 05:02:46;;;;;;;3.72;1.00;;;22.80;57.20;;;;;;5031304;28;20406;-65
2021/06/30 05:05:12;;;;;;;2.23;0.70;;;22.80;57.30;;;;;;5031631;28;20449;-65
2021/06/30 05:07:37;;;;;;;2.22;0.60;;;22.70;57.30;;;;;;5030909;28;20379;-65
2021/06/30 05:10:03;;;;;;;3.67;0.87;;;22.70;57.10;;;;;;5031609;28;20388;-65
2021/06/30 05:12:29;;;;;;;3.17;0.70;;;22.70;57.10;;;;;;5031132;28;20391;-64
2021/06/30 05:14:55;;;;;;;1.30;0.80;;;22.70;57.40;;;;;;5031249;28;20393;-65
2021/06/30 05:17:21;;;;;;;2.30;0.90;;;22.50;57.50;;;;;;5031174;28;20395;-66
2021/06/30 05:19:47;;;;;;;2.20;0.82;;;22.10;58.50;;;;;;5030433;28;20762;-66
2021/06/30 05:22:13;;;;;;;2.50;0.70;;;22.00;58.80;;;;;;5031459;28;20387;-65
2021/06/30 05:24:39;;;;;;;1.02;0.50;;;22.10;58.00;;;;;;5031153;28;20806;-65
2021/06/30 05:27:06;;;;;;;1.17;0.40;;;22.20;57.10;;;;;;5031126;28;20466;-65
2021/06/30 05:29:32;;;;;;;1.13;0.50;;;22.20;56.50;;;;;;5034108;28;20752;-65
2021/06/30 05:31:58;;;;;;;0.95;0.30;;;22.30;56.20;;;;;;5034608;28;20387;-65
2021/06/30 05:34:24;;;;;;;0.70;0.40;;;22.40;55.70;;;;;;5034919;28;20401;-65
2021/06/30 05:36:51;;;;;;;1.40;0.20;;;22.50;55.10;;;;;;5034840;28;20399;-65
2021/06/30 05:39:18;;;;;;;0.70;0.20;;;22.50;54.80;;;;;;5034688;28;20906;-65
2021/06/30 05:41:45;;;;;;;2.45;0.30;;;22.50;54.60;;;;;;5034274;28;20482;-65
2021/06/30 05:44:12;;;;;;;3.17;0.30;;;22.50;54.30;;;;;;5034620;28;20383;-65
2021/06/30 05:46:39;;;;;;;2.00;0.22;;;22.40;54.50;;;;;;5034675;28;20391;-64
2021/06/30 05:49:05;;;;;;;1.58;0.28;;;22.40;55.00;;;;;;5034351;28;20390;-65
2021/06/30 05:51:33;;;;;;;1.00;0.30;;;22.50;54.10;;;;;;5034626;28;20387;-65
2021/06/30 05:53:59;;;;;;;3.85;0.38;;;22.40;54.40;;;;;;5034245;28;20498;-65
2021/06/30 05:56:25;;;;;;;1.45;0.40;;;22.30;54.60;;;;;;5034368;28;20383;-65
2021/06/30 05:58:51;;;;;;;2.60;0.50;;;22.40;55.00;;;;;;5034294;28;20427;-65
2021/06/30 06:01:16;;;;;;;3.10;0.50;;;22.60;55.00;;;;;;5034409;28;20525;-65
2021/06/30 06:03:42;;;;;;;2.97;0.45;;;22.70;55.70;;;;;;5032555;28;20395;-65
2021/06/30 06:06:08;;;;;;;1.83;0.50;;;22.70;56.00;;;;;;5034441;28;20445;-65
2021/06/30 06:08:34;;;;;;;1.63;0.50;;;22.90;56.10;;;;;;5034199;28;20788;-65
2021/06/30 06:11:00;;;;;;;1.83;0.43;;;23.00;55.40;;;;;;5034428;28;20387;-65
2021/06/30 06:13:26;;;;;;;2.15;0.38;;;23.00;55.60;;;;;;5034185;28;20403;-65
2021/06/30 06:15:52;;;;;;;1.45;0.40;;;23.10;55.40;;;;;;5033580;28;20395;-65
2021/06/30 06:18:21;;;;;;;0.53;0.20;;;23.10;55.40;;;;;;5030853;28;20411;-64
2021/06/30 06:20:47;;;;;;;1.13;0.30;;;23.10;55.90;;;;;;5026069;28;20434;-65
2021/06/30 06:23:12;;;;;;;1.35;0.30;;;23.20;55.50;;;;;;5031016;28;20383;-65
2021/06/30 06:25:38;;;;;;;1.07;0.33;;;23.20;54.90;;;;;;5032496;28;20395;-65
2021/06/30 06:28:05;;;;;;;3.60;0.40;;;23.30;54.90;;;;;;5032137;28;20393;-67
2021/06/30 06:30:31;;;;;;;1.97;0.30;;;23.30;54.40;;;;;;5031381;28;20458;-65
2021/06/30 06:32:57;;;;;;;2.83;0.60;;;23.30;54.20;;;;;;5032899;28;20395;-65
2021/06/30 06:35:23;;;;;;;3.07;0.40;;;23.30;54.40;;;;;;5030951;28;20393;-65
2021/06/30 06:37:49;;;;;;;3.47;0.50;;;23.40;54.40;;;;;;5028109;28;20391;-65
2021/06/30 06:40:15;;;;;;;0.93;0.30;;;23.40;54.10;;;;;;5027025;28;20422;-64
2021/06/30 06:42:41;;;;;;;4.35;0.52;;;23.40;54.10;;;;;;5033224;28;20402;-67
2021/06/30 06:45:08;;;;;;;3.05;0.40;;;23.40;54.40;;;;;;5027794;28;20489;-64
2021/06/30 06:47:35;;;;;;;3.22;0.45;;;23.40;54.30;;;;;;5030411;28;20886;-64
2021/06/30 06:50:02;;;;;;;2.22;0.40;;;23.40;54.40;;;;;;5032857;28;20391;-68
2021/06/30 06:52:28;;;;;;;1.98;0.38;;;23.40;54.50;;;;;;5031677;28;20417;-69
2021/06/30 06:54:54;;;;;;;1.65;0.30;;;23.40;54.60;;;;;;5032141;28;20891;-69
2021/06/30 06:57:22;;;;;;;2.20;0.50;;;23.40;54.70;;;;;;5032444;28;20947;-70
2021/06/30 06:59:48;;;;;;;0.90;0.32;;;23.40;54.50;;;;;;5031516;28;20434;-69
2021/06/30 07:02:14;;;;;;;1.10;0.40;;;23.40;55.10;;;;;;5031571;28;20395;-65
2021/06/30 07:04:41;;;;;;;1.17;0.40;;;23.40;54.20;;;;;;5032502;28;20406;-66
2021/06/30 07:07:08;;;;;;;1.20;0.38;;;23.50;54.20;;;;;;5031655;28;20747;-65
2021/06/30 07:09:33;;;;;;;2.10;0.33;;;23.50;54.10;;;;;;5032925;28;20383;-69
2021/06/30 07:11:59;;;;;;;0.90;0.30;;;23.50;53.90;;;;;;5032440;28;20387;-68
2021/06/30 07:14:25;;;;;;;1.00;0.30;;;23.60;53.90;;;;;;5031625;28;20802;-66
2021/06/30 07:16:50;;;;;;;1.23;0.30;;;23.60;53.80;;;;;;5031582;28;20874;-67
2021/06/30 07:19:16;;;;;;;1.50;0.40;;;23.60;53.60;;;;;;5031486;28;20510;-66
2021/06/30 07:21:42;;;;;;;1.50;0.30;;;23.70;53.40;;;;;;5031849;28;20407;-67
2021/06/30 07:24:08;;;;;;;3.87;0.40;;;23.70;53.30;;;;;;5032900;28;20444;-67
2021/06/30 07:26:35;;;;;;;1.83;0.23;;;23.70;53.30;;;;;;5032793;28;20926;-68
2021/06/30 07:29:01;;;;;;;2.13;0.30;;;23.70;53.30;;;;;;5031559;28;20387;-69
2021/06/30 07:31:27;;;;;;;1.37;0.50;;;23.70;53.40;;;;;;5032642;28;20962;-68
2021/06/30 07:33:53;;;;;;;4.40;1.30;;;23.70;53.50;;;;;;5032233;28;20398;-67
2021/06/30 07:36:18;;;;;;;3.63;1.53;;;23.70;53.60;;;;;;5030832;28;20763;-68
2021/06/30 07:38:45;;;;;;;5.68;1.90;;;23.80;53.60;;;;;;5032155;28;20408;-66
2021/06/30 07:41:11;;;;;;;2.72;0.98;;;23.80;53.60;;;;;;5032166;28;20921;-67
2021/06/30 07:43:38;;;;;;;2.72;0.90;;;23.90;53.50;;;;;;5031298;28;20870;-69
2021/06/30 07:46:05;;;;;;;2.78;0.80;;;23.90;53.50;;;;;;5031004;28;20767;-66
2021/06/30 07:48:31;;;;;;;1.85;0.73;;;23.90;53.40;;;;;;5030852;28;20391;-66
2021/06/30 07:50:57;;;;;;;2.20;0.60;;;23.90;53.40;;;;;;5031648;28;20405;-65
2021/06/30 07:53:23;;;;;;;1.53;0.60;;;23.90;53.30;;;;;;5028113;28;20482;-65
2021/06/30 07:55:48;;;;;;;1.45;0.50;;;23.90;53.30;;;;;;5026242;28;20461;-65
2021/06/30 07:58:17;;;;;;;1.40;0.50;;;23.90;53.30;;;;;;5028635;28;20487;-65
2021/06/30 08:00:43;;;;;;;1.33;0.40;;;24.00;53.30;;;;;;5026001;28;21111;-65
2021/06/30 08:03:08;;;;;;;1.47;0.50;;;24.00;53.30;;;;;;5015263;28;20391;-66
2021/06/30 08:05:34;;;;;;;1.42;0.40;;;24.00;53.20;;;;;;5027439;28;20391;-66
2021/06/30 08:08:00;;;;;;;1.10;0.43;;;24.00;53.20;;;;;;5028927;28;20446;-65
2021/06/30 08:10:26;;;;;;;1.10;0.40;;;24.00;53.10;;;;;;5032021;28;20474;-65
2021/06/30 08:12:51;;;;;;;1.33;0.50;;;24.10;53.10;;;;;;5031844;28;20802;-65
2021/06/30 08:15:17;;;;;;;0.95;0.40;;;24.10;52.70;;;;;;5031998;28;20395;-66
2021/06/30 08:17:46;;;;;;;1.57;0.50;;;24.10;52.80;;;;;;5023062;28;20426;-65
2021/06/30 08:20:13;;;;;;;2.07;0.60;;;24.10;52.70;;;;;;5021800;28;20419;-65
2021/06/30 08:22:42;;;;;;;1.98;0.47;;;24.10;52.80;;;;;;5020325;28;21332;-66
2021/06/30 08:25:09;;;;;;;1.42;0.40;;;24.10;52.80;;;;;;5019597;28;20432;-70
2021/06/30 08:27:37;;;;;;;2.10;0.40;;;24.10;52.70;;;;;;5021789;28;20464;-66
2021/06/30 08:30:06;;;;;;;4.07;0.60;;;24.10;52.60;;;;;;5021006;28;20396;-69
2021/06/30 08:32:32;;;;;;;1.35;0.40;;;24.10;52.50;;;;;;5019469;28;20428;-66
2021/06/30 08:34:57;;;;;;;1.98;0.40;;;24.10;52.50;;;;;;5019589;28;20428;-68
2021/06/30 08:37:25;;;;;;;0.98;0.32;;;24.10;52.50;;;;;;5018899;28;20457;-67
2021/06/30 08:39:51;;;;;;;1.40;0.50;;;24.20;52.60;;;;;;5021092;28;20430;-66
2021/06/30 08:42:17;;;;;;;1.70;0.40;;;24.20;52.50;;;;;;5018774;28;20761;-66
2021/06/30 08:44:43;;;;;;;1.10;0.40;;;24.20;53.10;;;;;;5021000;28;20400;-65
2021/06/30 08:47:09;;;;;;;0.82;0.30;;;24.20;52.50;;;;;;5018153;28;20393;-66
2021/06/30 08:49:40;;;;;;;1.30;0.40;;;24.20;52.40;;;;;;5021138;28;21271;-67
2021/06/30 08:52:07;;;;;;;1.45;0.30;;;24.20;52.50;;;;;;5019335;28;20764;-66
2021/06/30 08:54:33;;;;;;;1.73;0.38;;;24.20;52.40;;;;;;5017565;28;20392;-66
2021/06/30 08:56:59;;;;;;;0.80;0.30;;;24.30;52.40;;;;;;5020634;28;20444;-66
2021/06/30 08:59:26;;;;;;;0.80;0.22;;;24.20;52.30;;;;;;5019690;28;20410;-67
2021/06/30 09:01:52;;;;;;;0.70;0.28;;;24.20;52.40;;;;;;5018232;28;20395;-66
2021/06/30 09:04:18;;;;;;;0.87;0.30;;;24.20;52.30;;;;;;5023052;28;20437;-67
2021/06/30 09:06:43;;;;;;;0.63;0.30;;;24.20;52.30;;;;;;5024136;28;20391;-66
2021/06/30 09:09:14;;;;;;;1.60;0.30;;;24.30;52.30;;;;;;5025314;28;20410;-69
2021/06/30 09:11:42;;;;;;;0.47;0.20;;;24.20;52.20;;;;;;5024292;28;20392;-66
2021/06/30 09:14:23;;;;;;;1.02;0.30;;;24.20;52.20;;;;;;5024522;28;20469;-68
2021/06/30 09:17:26;;;;;;;0.30;0.20;;;24.30;52.20;;;;;;5024873;28;20394;-66
2021/06/30 09:19:46;;;;;;;0.60;0.30;;;24.30;52.20;;;;;;5025690;28;20420;-66
2021/06/30 09:22:12;;;;;;;0.85;0.20;;;24.30;52.20;;;;;;5023066;28;20962;-66
2021/06/30 09:24:39;;;;;;;0.45;0.20;;;24.30;52.10;;;;;;5024150;28;20399;-65
2021/06/30 09:27:05;;;;;;;0.60;0.20;;;24.30;52.10;;;;;;5024572;28;20408;-66
2021/06/30 09:29:31;;;;;;;0.60;0.20;;;24.30;52.10;;;;;;5022743;28;20865;-66
2021/06/30 09:31:57;;;;;;;1.10;0.20;;;24.30;52.10;;;;;;5025193;28;20396;-67
2021/06/30 09:34:25;;;;;;;0.75;0.30;;;24.30;52.10;;;;;;5023504;28;20387;-66
2021/06/30 09:36:59;;;;;;;0.82;0.30;;;24.30;52.00;;;;;;5024743;28;20391;-66
2021/06/30 09:39:27;;;;;;;0.50;0.20;;;24.30;52.00;;;;;;5024369;28;20908;-67
2021/06/30 09:42:13;;;;;;;0.60;0.20;;;24.30;52.00;;;;;;5021624;28;20442;-66
2021/06/30 09:44:43;;;;;;;0.82;0.20;;;24.40;52.10;;;;;;5023470;28;20385;-69
2021/06/30 09:47:10;;;;;;;1.15;0.20;;;24.40;52.10;;;;;;5021374;28;20396;-66
2021/06/30 09:49:38;;;;;;;0.55;0.20;;;24.40;52.00;;;;;;5024242;28;20871;-68
2021/06/30 09:52:15;;;;;;;0.60;0.20;;;24.40;52.00;;;;;;5021857;28;20389;-69
2021/06/30 09:54:43;;;;;;;0.50;0.20;;;24.40;51.90;;;;;;5021837;28;20379;-66
2021/06/30 09:57:14;;;;;;;0.40;0.10;;;24.30;51.90;;;;;;5024444;28;20391;-67
2021/06/30 09:59:46;;;;;;;0.60;0.20;;;24.40;52.10;;;;;;5020530;28;20503;-66
2021/06/30 10:02:18;;;;;;;0.28;0.10;;;24.40;52.00;;;;;;5024151;28;20462;-66
2021/06/30 10:04:44;;;;;;;0.50;0.10;;;24.40;51.90;;;;;;5022433;28;20761;-66
2021/06/30 10:07:24;;;;;;;0.80;0.20;;;24.40;52.00;;;;;;5021010;28;20401;-67
2021/06/30 10:09:56;;;;;;;0.30;0.10;;;24.50;51.90;;;;;;5021661;28;20389;-68
2021/06/30 10:12:27;;;;;;;0.57;0.20;;;24.50;51.80;;;;;;5023075;28;20391;-64
2021/06/30 10:14:53;;;;;;;0.80;0.20;;;24.50;51.80;;;;;;5019558;28;20796;-64
2021/06/30 10:17:20;;;;;;;0.43;0.10;;;24.50;51.90;;;;;;5023333;28;20913;-63
2021/06/30 10:19:48;;;;;;;0.70;0.20;;;24.50;51.80;;;;;;5020860;28;20422;-64
2021/06/30 10:22:14;;;;;;;0.75;0.10;;;24.50;51.70;;;;;;5021466;28;20400;-65
2021/06/30 10:24:41;;;;;;;0.22;0.10;;;24.50;51.80;;;;;;5022628;28;20414;-64
2021/06/30 10:27:08;;;;;;;0.60;0.10;;;24.50;51.70;;;;;;5023613;28;20530;-69
2021/06/30 10:29:41;;;;;;;0.45;0.10;;;24.50;51.70;;;;;;5021229;28;20392;-65
2021/06/30 10:32:10;;;;;;;0.30;0.10;;;24.60;51.70;;;;;;5023130;28;20397;-65
2021/06/30 10:34:49;;;;;;;0.63;0.13;;;24.60;51.70;;;;;;5019100;28;20405;-66
2021/06/30 10:37:37;;;;;;;0.40;0.10;;;24.60;51.70;;;;;;5021104;28;20387;-64
2021/06/30 10:40:11;;;;;;;0.20;0.10;;;24.60;51.60;;;;;;5020621;28;20422;-64
2021/06/30 10:42:39;;;;;;;0.68;0.30;;;24.60;51.60;;;;;;5022141;28;20421;-65
2021/06/30 10:45:13;;;;;;;0.30;0.10;;;24.60;51.60;;;;;;5022307;28;20388;-64
2021/06/30 10:47:52;;;;;;;0.47;0.10;;;24.60;51.60;;;;;;5020819;28;20396;-66
2021/06/30 10:50:22;;;;;;;0.30;0.10;;;24.60;51.50;;;;;;5014187;28;20527;-64
2021/06/30 10:53:25;;;;;;;0.50;0.10;;;24.70;51.60;;;;;;5013972;28;20381;-65
2021/06/30 10:55:53;;;;;;;0.23;0.10;;;24.60;51.50;;;;;;5011481;28;20440;-64
2021/06/30 10:58:20;;;;;;;0.45;0.10;;;24.70;51.60;;;;;;5013679;28;20393;-64
2021/06/30 11:00:54;;;;;;;0.20;0.10;;;24.70;51.50;;;;;;5013695;28;20995;-66
2021/06/30 11:03:42;;;;;;;0.40;0.20;;;24.70;51.40;;;;;;5013780;28;20392;-64
2021/06/30 11:06:12;;;;;;;0.20;0.10;;;24.70;51.40;;;;;;5013255;28;20459;-64
2021/06/30 11:08:48;;;;;;;0.30;0.17;;;24.70;51.40;;;;;;5017676;28;20460;-65
2021/06/30 11:11:29;;;;;;;0.40;0.10;;;24.70;51.40;;;;;;5033513;28;20406;-65
2021/06/30 11:14:04;;;;;;;0.50;0.20;;;24.70;51.30;;;;;;5015584;28;20451;-65
2021/06/30 11:16:40;;;;;;;0.52;0.20;;;24.70;51.30;;;;;;5022003;28;20401;-64
2021/06/30 11:19:15;;;;;;;0.10;0.10;;;24.80;51.40;;;;;;5022290;28;20413;-65
2021/06/30 11:21:55;;;;;;;0.30;0.10;;;24.80;51.30;;;;;;5017090;28;20408;-65
2021/06/30 11:24:42;;;;;;;0.30;0.10;;;24.80;51.90;;;;;;5017929;28;20809;-65
2021/06/30 11:30:01;;;;;;;0.40;0.10;;;24.80;51.30;;;;;;5019329;28;20391;-64
2021/06/30 11:32:35;;;;;;;0.40;0.20;;;24.80;51.20;;;;;;5032336;28;20395;-64
2021/06/30 11:35:08;;;;;;;0.40;0.10;;;24.80;51.20;;;;;;5031725;28;20563;-64
2021/06/30 11:37:34;;;;;;;0.80;0.10;;;24.80;51.20;;;;;;5032033;28;20410;-65
2021/06/30 11:40:06;;;;;;;0.40;0.20;;;24.80;51.10;;;;;;5030573;28;20493;-64
2021/06/30 11:42:39;;;;;;;0.30;0.10;;;24.80;51.10;;;;;;5032475;28;20901;-64
2021/06/30 11:45:30;;;;;;;0.75;0.10;;;24.80;51.20;;;;;;5032510;28;20403;-64
2021/06/30 11:47:58;;;;;;;0.22;0.10;;;24.80;51.10;;;;;;5032104;28;20388;-64
2021/06/30 11:50:29;;;;;;;0.55;0.10;;;24.80;51.10;;;;;;5032521;28;20391;-65
2021/06/30 11:52:57;;;;;;;0.15;0.05;;;24.80;51.00;;;;;;5032169;28;20383;-68
2021/06/30 11:55:23;;;;;;;0.13;0.00;;;24.80;51.10;;;;;;5031594;28;20398;-65
2021/06/30 11:58:01;;;;;;;0.70;0.10;;;24.80;51.00;;;;;;5031898;28;20422;-64
2021/06/30 12:00:29;;;;;;;0.82;0.10;;;24.80;51.10;;;;;;5032100;28;20415;-64
2021/06/30 12:02:57;;;;;;;0.20;0.10;;;24.80;51.10;;;;;;5032130;28;20386;-64
2021/06/30 12:05:27;;;;;;;1.03;0.10;;;24.90;51.10;;;;;;5031933;28;20823;-64
2021/06/30 12:07:54;;;;;;;0.30;0.10;;;24.80;51.00;;;;;;5030740;28;20391;-64
2021/06/30 12:10:25;;;;;;;0.90;0.10;;;24.90;51.00;;;;;;5032122;28;20387;-64
2021/06/30 12:12:51;;;;;;;0.30;0.10;;;24.90;51.00;;;;;;5032071;28;20708;-64
2021/06/30 12:15:18;;;;;;;0.50;0.10;;;24.90;50.90;;;;;;5032062;28;20387;-64
2021/06/30 12:17:50;;;;;;;0.32;0.20;;;24.90;50.90;;;;;;5031926;28;20414;-65
2021/06/30 12:20:17;;;;;;;0.85;0.15;;;24.90;50.90;;;;;;5030969;28;20438;-64
2021/06/30 12:22:44;;;;;;;0.32;0.10;;;24.80;50.80;;;;;;5030359;28;20802;-64
2021/06/30 12:25:16;;;;;;;0.28;0.10;;;24.90;50.80;;;;;;5030619;28;20913;-64
2021/06/30 12:27:47;;;;;;;0.73;0.10;;;24.90;50.90;;;;;;5031813;28;20379;-64
2021/06/30 12:30:12;;;;;;;0.20;0.10;;;24.90;50.80;;;;;;5031441;28;20922;-65
2021/06/30 12:32:43;;;;;;;1.90;0.20;;;24.90;50.80;;;;;;5031804;28;20529;-64
2021/06/30 12:35:10;;;;;;;0.45;0.10;;;24.90;50.70;;;;;;5031539;28;20379;-64
2021/06/30 12:37:37;;;;;;;0.20;0.10;;;24.90;50.70;;;;;;5031032;28;20390;-64
2021/06/30 12:40:09;;;;;;;0.22;0.10;;;24.90;50.70;;;;;;5031156;28;20423;-64
2021/06/30 12:43:24;;;;;;;0.60;0.10;;;24.90;50.70;;;;;;5031669;28;20401;-64
2021/06/30 12:45:54;;;;;;;0.20;0.15;;;24.90;50.70;;;;;;5029671;28;20399;-64
2021/06/30 12:48:33;;;;;;;0.52;0.10;;;24.90;50.70;;;;;;5031423;28;20386;-65
2021/06/30 12:51:13;;;;;;;0.10;0.10;;;24.90;50.60;;;;;;5030312;28;20809;-64
2021/06/30 12:53:40;;;;;;;0.20;0.10;;;24.90;51.20;;;;;;5031284;28;20429;-65
2021/06/30 12:56:07;;;;;;;0.13;0.10;;;25.00;50.60;;;;;;5030952;28;20390;-64